G. O. Sars — LMEL — position and weather

sailwx.info

Track history (hours):
 
Tides and Currents Weather Stations Pressure Air Temp Water Temp Dewpoint Dewpoint Depression Visibility Wind Speed Wind Dir Waves Ship Positions

Oceanographic research ship G. O. Sars (Norway)

Detailed information on ship capabilities available from University of Delaware's Ocean Information Center and ARCUS's ALIAS (Arctic Logistics Information and Support) project.

Last reported at 2019-Sep-20 10:00 UTC. Time now 2019-Sep-20 10:29 UTC.
Position N 60°44' E 002°42'.

Type: Cargo ship. MMSI: 257105000.

Date/timePositionNaut miles runAvg speedWind from/ knotsBaromVisibWave heightAir tempDewpointWater temp
2019-Sep-20 10:00N 60°44' E 002°42'1 1.8
2019-Sep-20 09:30N 60°45' E 002°41'2 3.1
2019-Sep-20 08:59N 60°46' E 002°38'1 1.2
2019-Sep-20 08:30N 60°46' E 002°39'0 0.7
2019-Sep-20 07:59N 60°46' E 002°38'1 2.5
2019-Sep-20 07:28N 60°45' E 002°40'2 3.9
2019-Sep-20 07:00N 60°44' E 002°43'510.0
2019-Sep-20 06:30N 60°44' E 002°53'5 9.9
2019-Sep-20 06:00N 60°44' E 003°03'5 9.8
2019-Sep-20 05:30N 60°44' E 003°13'5 9.8
2019-Sep-20 05:00N 60°45' E 003°23'5 9.8
2019-Sep-20 04:30N 60°45' E 003°33'5 9.6
2019-Sep-20 04:00N 60°45' E 003°43'510.1
2019-Sep-20 03:30N 60°45' E 003°54'510.0
2019-Sep-20 03:00N 60°45' E 004°04'2 3.3
2019-Sep-20 02:30N 60°45' E 004°07'4 8.5
2019-Sep-20 02:00N 60°45' E 004°16'1 1.7
2019-Sep-20 01:30N 60°45' E 004°17'5 9.1
2019-Sep-20 01:00N 60°45' E 004°27'1 2.6
2019-Sep-20 00:30N 60°45' E 004°30'4 7.4
2019-Sep-20 00:00N 60°45' E 004°37'2 4.0
2019-Sep-19 23:30N 60°44' E 004°41'510.6
2019-Sep-19 23:00N 60°41' E 004°50'612.3
2019-Sep-19 22:30N 60°35' E 004°54'612.2
2019-Sep-19 22:00N 60°30' E 004°59'611.6
2019-Sep-19 21:30N 60°25' E 005°05'4 9.2
2019-Sep-19 21:00N 60°24' E 005°14'0 0.4
2019-Sep-19 20:30N 60°24' E 005°14'0 0.0
2019-Sep-19 20:00N 60°24' E 005°14'0 0.0
2019-Sep-19 19:29N 60°24' E 005°14'0 0.0
2019-Sep-19 18:59N 60°24' E 005°14'0 0.0
2019-Sep-19 18:30N 60°24' E 005°14'0 0.0
2019-Sep-19 18:00N 60°24' E 005°14'0 0.4
2019-Sep-19 17:30N 60°24' E 005°14'0 0.0
2019-Sep-19 17:00N 60°24' E 005°14'0 0.0
2019-Sep-19 16:30N 60°24' E 005°14'0 0.2
2019-Sep-19 15:59N 60°24' E 005°14'1 2.8
2019-Sep-19 15:30N 60°25' E 005°16'4 8.9
2019-Sep-19 15:00N 60°29' E 005°14'1 2.9
2019-Sep-19 14:30N 60°31' E 005°15'0 0.9
2019-Sep-19 14:00N 60°30' E 005°15'2 3.4
2019-Sep-19 13:30N 60°29' E 005°15'1 1.8
2019-Sep-19 13:00N 60°29' E 005°15'1 2.8
2019-Sep-19 12:30N 60°31' E 005°16'4 8.7
2019-Sep-19 12:00N 60°27' E 005°16'1 3.0
2019-Sep-19 11:30N 60°28' E 005°15'1 2.8
2019-Sep-19 11:00N 60°29' E 005°15'2 3.3
2019-Sep-19 10:30N 60°31' E 005°16'1 1.7
2019-Sep-19 10:00N 60°30' E 005°15'1 1.9
2019-Sep-19 09:30N 60°30' E 005°13'0 0.1
2019-Sep-19 09:00N 60°30' E 005°13'0 0.4
2019-Sep-19 08:30N 60°30' E 005°14'0 0.5
2019-Sep-19 08:00N 60°30' E 005°14'0 0.5
2019-Sep-19 07:30N 60°30' E 005°14'0 0.5
2019-Sep-19 07:00N 60°30' E 005°15'0 0.3
2019-Sep-19 06:30N 60°30' E 005°15'1 1.2
2019-Sep-19 05:59N 60°30' E 005°14'0 0.1
2019-Sep-19 05:30N 60°30' E 005°13'1 2.5
2019-Sep-19 05:00N 60°30' E 005°11'3 5.6
2019-Sep-19 04:30N 60°32' E 005°06'3 5.6
2019-Sep-19 04:00N 60°33' E 005°01'1 1.2
2019-Sep-19 03:30N 60°33' E 004°60'3 6.9
2019-Sep-19 03:00N 60°32' E 005°06'3 6.5
2019-Sep-19 02:30N 60°30' E 005°12'1 1.7
2019-Sep-19 02:00N 60°31' E 005°11'3 5.9
2019-Sep-19 01:30N 60°32' E 005°05'3 5.8
2019-Sep-19 00:59N 60°33' E 004°60'1 2.0
2019-Sep-19 00:30N 60°33' E 005°01'3 6.5
2019-Sep-19 00:00N 60°31' E 005°07'3 6.3
2019-Sep-18 23:30N 60°30' E 005°13'2 4.1
2019-Sep-18 22:59N 60°31' E 005°09'3 6.2
2019-Sep-18 22:30N 60°32' E 005°04'3 5.8
2019-Sep-18 21:59N 60°34' E 004°59'3 6.0
2019-Sep-18 21:30N 60°32' E 005°04'3 6.6
2019-Sep-18 21:00N 60°31' E 005°10'1 2.9
2019-Sep-18 20:30N 60°30' E 005°12'3 6.8
2019-Sep-18 20:00N 60°32' E 005°06'3 5.2
2019-Sep-18 19:30N 60°33' E 005°01'1 1.0
2019-Sep-18 19:00N 60°33' E 005°00'0 0.6
2019-Sep-18 18:30N 60°33' E 004°60'3 6.5
2019-Sep-18 18:00N 60°32' E 005°06'3 6.4
2019-Sep-18 17:30N 60°30' E 005°12'0 0.7
2019-Sep-18 17:00N 60°30' E 005°11'3 6.5
2019-Sep-18 16:29N 60°32' E 005°05'3 6.4
2019-Sep-18 16:00N 60°33' E 004°59'3 5.5
2019-Sep-18 15:30N 60°32' E 005°04'510.4
2019-Sep-18 14:59N 60°30' E 005°14'510.1
2019-Sep-18 14:30N 60°25' E 005°17'1 2.7
2019-Sep-18 14:00N 60°24' E 005°19'0 0.0
2019-Sep-18 13:30N 60°24' E 005°19'0 0.0
2019-Sep-18 13:00N 60°24' E 005°19'0 0.0
2019-Sep-18 12:30N 60°24' E 005°19'0 0.0
2019-Sep-18 12:00N 60°24' E 005°19'0 0.0
2019-Sep-18 11:30N 60°24' E 005°19'0 0.0
2019-Sep-18 11:00N 60°24' E 005°19'0 0.0
2019-Sep-18 10:30N 60°24' E 005°19'0 0.0
2019-Sep-18 10:00N 60°24' E 005°19'0 0.0
2019-Sep-18 09:30N 60°24' E 005°19'0 0.0
2019-Sep-18 09:00N 60°24' E 005°19'0 0.0
2019-Sep-18 08:30N 60°24' E 005°19'0 0.0
2019-Sep-18 08:00N 60°24' E 005°19'0 0.0
2019-Sep-18 07:30N 60°24' E 005°19'0 0.0
2019-Sep-18 07:00N 60°24' E 005°19'0 0.0
2019-Sep-18 06:30N 60°24' E 005°19'0 0.2
2019-Sep-18 06:00N 60°24' E 005°19'0 0.0
2019-Sep-18 05:30N 60°24' E 005°19'0 0.0
2019-Sep-18 05:00N 60°24' E 005°19'0 0.0
2019-Sep-18 04:30N 60°24' E 005°19'0 0.0
2019-Sep-18 04:00N 60°24' E 005°19'0 0.0
2019-Sep-18 03:30N 60°24' E 005°19'0 0.0
2019-Sep-18 03:00N 60°24' E 005°19'0 0.0
2019-Sep-18 02:30N 60°24' E 005°19'0 0.0
2019-Sep-18 02:00N 60°24' E 005°19'0 0.0
2019-Sep-18 01:30N 60°24' E 005°19'0 0.0
2019-Sep-18 01:00N 60°24' E 005°19'0 0.0
2019-Sep-18 00:30N 60°24' E 005°19'0 0.0
2019-Sep-18 00:00N 60°24' E 005°19'0 0.0
2019-Sep-17 23:30N 60°24' E 005°19'0 0.0
2019-Sep-17 23:00N 60°24' E 005°19'0 0.0
2019-Sep-17 22:30N 60°24' E 005°19'0 0.0
2019-Sep-17 22:00N 60°24' E 005°19'0 0.0
2019-Sep-17 21:30N 60°24' E 005°19'0 0.0
2019-Sep-17 21:00N 60°24' E 005°19'0 0.0
2019-Sep-17 20:30N 60°24' E 005°19'0 0.0
2019-Sep-17 20:00N 60°24' E 005°19'0 0.0
2019-Sep-17 19:30N 60°24' E 005°19'0 0.0
2019-Sep-17 19:00N 60°24' E 005°19'0 0.0
2019-Sep-17 18:30N 60°24' E 005°19'0 0.0
2019-Sep-17 18:00N 60°24' E 005°19'0 0.0
2019-Sep-17 17:30N 60°24' E 005°19'0 0.0
2019-Sep-17 17:00N 60°24' E 005°19'0 0.0
2019-Sep-17 16:30N 60°24' E 005°19'0 0.0
2019-Sep-17 16:00N 60°24' E 005°19'0 0.0
2019-Sep-17 15:30N 60°24' E 005°19'0 0.0
2019-Sep-17 15:00N 60°24' E 005°19'0 0.0
2019-Sep-17 14:30N 60°24' E 005°19'0 0.0
2019-Sep-17 14:00N 60°24' E 005°19'0 0.0
2019-Sep-17 13:30N 60°24' E 005°19'0 0.0
2019-Sep-17 13:00N 60°24' E 005°19'0 0.0
2019-Sep-17 12:30N 60°24' E 005°19'0 0.0
2019-Sep-17 12:00N 60°24' E 005°19'0 0.0
2019-Sep-17 11:30N 60°24' E 005°19'0 0.0
2019-Sep-17 11:00N 60°24' E 005°19'0 0.0
2019-Sep-17 10:30N 60°24' E 005°19'0 0.2
2019-Sep-17 10:00N 60°24' E 005°19'0 0.0
2019-Sep-17 09:30N 60°24' E 005°19'0 0.0
2019-Sep-17 09:00N 60°24' E 005°19'0 0.0
2019-Sep-17 08:30N 60°24' E 005°19'0 0.0
2019-Sep-17 08:00N 60°24' E 005°19'0 0.0
2019-Sep-17 07:30N 60°24' E 005°19'0 0.0
2019-Sep-17 07:00N 60°24' E 005°19'0 0.0
2019-Sep-17 06:30N 60°24' E 005°19'0 0.0
2019-Sep-17 06:00N 60°24' E 005°19'0 0.0
2019-Sep-17 05:30N 60°24' E 005°19'0 0.0
2019-Sep-17 05:00N 60°24' E 005°19'0 0.0
2019-Sep-17 04:30N 60°24' E 005°19'0 0.0
2019-Sep-17 04:00N 60°24' E 005°19'0 0.0
2019-Sep-17 03:30N 60°24' E 005°19'0 0.0
2019-Sep-17 03:00N 60°24' E 005°19'0 0.0
2019-Sep-17 02:30N 60°24' E 005°19'0 0.0
2019-Sep-17 02:00N 60°24' E 005°19'0 0.0
2019-Sep-17 01:30N 60°24' E 005°19'0 0.0
2019-Sep-17 01:00N 60°24' E 005°19'0 0.0
2019-Sep-17 00:30N 60°24' E 005°19'0 0.0
2019-Sep-17 00:00N 60°24' E 005°19'0 0.0
2019-Sep-16 23:30N 60°24' E 005°19'0 0.0
2019-Sep-16 23:00N 60°24' E 005°19'0 0.0
2019-Sep-16 22:30N 60°24' E 005°19'0 0.0
2019-Sep-16 22:00N 60°24' E 005°19'0 0.0
2019-Sep-16 21:30N 60°24' E 005°19'0 0.0
2019-Sep-16 21:00N 60°24' E 005°19'0 0.0
2019-Sep-16 20:30N 60°24' E 005°19'0 0.0
2019-Sep-16 20:00N 60°24' E 005°19'0 0.0
2019-Sep-16 19:30N 60°24' E 005°19'0 0.0
2019-Sep-16 19:00N 60°24' E 005°19'0 0.0
2019-Sep-16 18:30N 60°24' E 005°19'0 0.0
2019-Sep-16 18:00N 60°24' E 005°19'0 0.0
2019-Sep-16 17:30N 60°24' E 005°19'0 0.0
2019-Sep-16 17:00N 60°24' E 005°19'0 0.0
2019-Sep-16 16:30N 60°24' E 005°19'0 0.0
2019-Sep-16 16:00N 60°24' E 005°19'0 0.0
2019-Sep-16 15:30N 60°24' E 005°19'0 0.0
2019-Sep-16 15:00N 60°24' E 005°19'1 1.8
2019-Sep-16 14:29N 60°25' E 005°19'0 0.1
2019-Sep-16 13:59N 60°25' E 005°19'0 0.0
2019-Sep-16 13:29N 60°25' E 005°19'0 0.0
2019-Sep-16 12:59N 60°25' E 005°19'0 0.0
2019-Sep-16 12:29N 60°25' E 005°19'0 0.1
2019-Sep-16 11:59N 60°25' E 005°19'0 0.0
2019-Sep-16 11:29N 60°25' E 005°19'0 0.0
2019-Sep-16 10:59N 60°25' E 005°19'0 0.0
2019-Sep-16 10:29N 60°25' E 005°19'0 0.0
2019-Sep-16 09:59N 60°25' E 005°19'0 0.1
2019-Sep-16 09:29N 60°25' E 005°19'0 0.0
2019-Sep-16 08:59N 60°25' E 005°19'1 1.3
2019-Sep-16 08:30N 60°24' E 005°18'0 0.7
2019-Sep-16 07:59N 60°24' E 005°19'0 0.0
2019-Sep-16 07:29N 60°24' E 005°19'0 0.0
2019-Sep-16 06:59N 60°24' E 005°19'0 0.0
2019-Sep-16 06:29N 60°24' E 005°19'0 0.0
2019-Sep-16 05:59N 60°24' E 005°19'0 0.0
2019-Sep-16 05:29N 60°24' E 005°19'0 0.0
2019-Sep-16 04:59N 60°24' E 005°19'0 0.0
2019-Sep-16 04:29N 60°24' E 005°19'0 0.0
2019-Sep-16 03:59N 60°24' E 005°19'0 0.0
2019-Sep-16 03:29N 60°24' E 005°19'0 0.0
2019-Sep-16 02:59N 60°24' E 005°19'0 0.0
2019-Sep-16 02:29N 60°24' E 005°19'0 0.0
2019-Sep-16 01:59N 60°24' E 005°19'0 0.0
2019-Sep-16 01:29N 60°24' E 005°19'0 0.0
2019-Sep-16 00:59N 60°24' E 005°19'0 0.0
2019-Sep-16 00:29N 60°24' E 005°19'0 0.0
2019-Sep-15 23:59N 60°24' E 005°19'0 0.0
2019-Sep-15 23:29N 60°24' E 005°19'0 0.0
2019-Sep-15 22:53N 60°24' E 005°19'0 0.0
2019-Sep-15 22:29N 60°24' E 005°19'0 0.0
2019-Sep-15 21:56N 60°24' E 005°19'0 0.0
2019-Sep-15 21:29N 60°24' E 005°19'0 0.0
2019-Sep-15 20:59N 60°24' E 005°19'0 0.0
2019-Sep-15 20:29N 60°24' E 005°19'0 0.0
2019-Sep-15 19:59N 60°24' E 005°19'0 0.0
2019-Sep-15 19:29N 60°24' E 005°19'0 0.0
2019-Sep-15 18:59N 60°24' E 005°19'0 0.0
2019-Sep-15 18:29N 60°24' E 005°19'0 0.0
2019-Sep-15 17:59N 60°24' E 005°19'0 0.0
2019-Sep-15 17:29N 60°24' E 005°19'0 0.0
2019-Sep-15 16:59N 60°24' E 005°19'0 0.0
2019-Sep-15 16:28N 60°24' E 005°19'0 0.0
2019-Sep-15 15:59N 60°24' E 005°19'0 0.0
2019-Sep-15 15:29N 60°24' E 005°19'0 0.0
2019-Sep-15 14:59N 60°24' E 005°19'0 0.0
2019-Sep-15 14:28N 60°24' E 005°19'0 0.0
2019-Sep-15 13:59N 60°24' E 005°19'0 0.0
2019-Sep-15 13:29N 60°24' E 005°19'0 0.0
2019-Sep-15 12:59N 60°24' E 005°19'0 0.0
2019-Sep-15 12:29N 60°24' E 005°19'0 0.0
2019-Sep-15 11:59N 60°24' E 005°19'0 0.0
2019-Sep-15 11:29N 60°24' E 005°19'0 0.0
2019-Sep-15 10:59N 60°24' E 005°19'0 0.0
2019-Sep-15 10:28N 60°24' E 005°19'0 0.0
2019-Sep-15 09:59N 60°24' E 005°19'0 0.0
2019-Sep-15 09:29N 60°24' E 005°19'0 0.0
2019-Sep-15 08:58N 60°24' E 005°19'0 0.0
2019-Sep-15 08:30N 60°24' E 005°19'2 3.6
2019-Sep-15 08:00N 60°24' E 005°15'5 9.5
2019-Sep-15 07:30N 60°25' E 005°06'510.0
2019-Sep-15 06:59N 60°29' E 004°60'510.0
2019-Sep-15 06:30N 60°33' E 004°55'510.1
2019-Sep-15 05:59N 60°38' E 004°52'510.2
2019-Sep-15 05:30N 60°43' E 004°49'510.4
2019-Sep-15 05:00N 60°47' E 004°45'4 8.3
2019-Sep-15 04:30N 60°52' E 004°46'5 9.4
2019-Sep-15 04:00N 60°56' E 004°46'4 7.4
2019-Sep-15 03:30N 60°60' E 004°48'4 8.4
2019-Sep-15 03:00N 61°02' E 004°55'510.0
2019-Sep-15 02:30N 61°06' E 005°02'5 9.6
2019-Sep-15 02:00N 61°11' E 005°01'4 8.9
2019-Sep-15 01:30N 61°15' E 004°56'4 8.0
2019-Sep-15 01:00N 61°18' E 005°00'3 6.0
2019-Sep-15 00:30N 61°21' E 005°02'4 8.4
2019-Sep-15 00:00N 61°25' E 004°58'5 9.6
2019-Sep-14 23:30N 61°29' E 004°59'5 9.7
2019-Sep-14 23:00N 61°34' E 004°58'510.0
2019-Sep-14 22:30N 61°39' E 004°59'510.1
2019-Sep-14 22:00N 61°44' E 004°56'5 9.2
2019-Sep-14 21:29N 61°47' E 005°04'4 9.1
2019-Sep-14 21:00N 61°49' E 005°12'3 6.1
2019-Sep-14 20:30N 61°52' E 005°13'4 9.1
2019-Sep-14 20:00N 61°56' E 005°07'4 6.9
2019-Sep-14 19:29N 61°59' E 005°10'4 8.6
2019-Sep-14 19:00N 62°03' E 005°08'4 8.5
2019-Sep-14 18:30N 62°05' E 004°60'2 5.0
2019-Sep-14 18:00N 62°08' E 005°00'2 4.3
2019-Sep-14 17:30N 62°10' E 005°01'2 3.9
2019-Sep-14 17:00N 62°12' E 005°03'2 4.3
2019-Sep-14 16:30N 62°13' E 005°07'4 7.1
2019-Sep-14 16:00N 62°13' E 005°14'612.1
2019-Sep-14 15:30N 62°10' E 005°24'510.0
2019-Sep-14 15:00N 62°11' E 005°35'612.6
2019-Sep-14 14:30N 62°12' E 005°48'611.8
2019-Sep-14 14:00N 62°16' E 005°58'612.4
2019-Sep-14 13:30N 62°21' E 006°07'612.3
2019-Sep-14 13:00N 62°26' E 006°02'611.6
2019-Sep-14 12:30N 62°31' E 006°09'612.1
2019-Sep-14 12:00N 62°36' E 006°17'612.0
2019-Sep-14 11:30N 62°40' E 006°26'612.4
2019-Sep-14 11:00N 62°46' E 006°33'612.0
2019-Sep-14 10:30N 62°51' E 006°40'611.8
2019-Sep-14 10:00N 62°56' E 006°47'510.3
2019-Sep-14 09:30N 62°59' E 006°56'510.1
2019-Sep-14 09:00N 63°01' E 007°06'510.6
2019-Sep-14 08:30N 63°03' E 007°17'510.6
2019-Sep-14 08:01N 63°05' E 007°28'510.9
2019-Sep-14 07:31N 63°08' E 007°37'611.4
2019-Sep-14 07:01N 63°11' E 007°48'611.4
2019-Sep-14 06:30N 63°14' E 007°59'611.3
2019-Sep-14 06:00N 63°17' E 008°10'611.8
2019-Sep-14 05:30N 63°21' E 008°20'611.7
2019-Sep-14 05:00N 63°24' E 008°31'611.5
2019-Sep-14 04:30N 63°26' E 008°43'611.4
2019-Sep-14 04:00N 63°28' E 008°55'611.8
2019-Sep-14 03:30N 63°30' E 009°07'510.9
2019-Sep-14 03:00N 63°34' E 009°16'612.7
2019-Sep-14 02:30N 63°41' E 009°16'612.8
2019-Sep-14 02:01N 63°47' E 009°18'612.4
2019-Sep-14 01:30N 63°53' E 009°21'612.2
2019-Sep-14 01:00N 63°58' E 009°28'612.1
2019-Sep-14 00:30N 64°04' E 009°34'611.7
2019-Sep-14 00:00N 64°09' E 009°41'611.8
2019-Sep-13 23:29N 64°14' E 009°49'611.5
2019-Sep-13 23:00N 64°18' E 009°57'511.2
2019-Sep-13 22:31N 64°22' E 010°05'610.8
2019-Sep-13 22:00N 64°26' E 010°14'611.0
2019-Sep-13 21:30N 64°30' E 010°23'611.3
2019-Sep-13 21:00N 64°34' E 010°32'611.2
2019-Sep-13 20:30N 64°38' E 010°41'611.3
2019-Sep-13 20:00N 64°42' E 010°51'611.8
2019-Sep-13 19:30N 64°46' E 011°02'612.4
2019-Sep-13 19:00N 64°50' E 011°11'510.0
2019-Sep-13 18:30N 64°54' E 011°20'611.4
2019-Sep-13 18:00N 64°57' E 011°31'612.0
2019-Sep-13 17:30N 65°01' E 011°41'612.8
2019-Sep-13 17:00N 65°07' E 011°48'612.6
2019-Sep-13 16:30N 65°13' E 011°54'612.8
2019-Sep-13 16:00N 65°19' E 011°60'510.0
2019-Sep-13 15:30N 65°24' E 011°58'611.6
2019-Sep-13 14:59N 65°30' E 011°59'612.3
2019-Sep-13 14:30N 65°35' E 012°07'612.5
2019-Sep-13 14:00N 65°40' E 012°14'612.7
2019-Sep-13 13:29N 65°46' E 012°19'612.8
2019-Sep-13 13:00N 65°52' E 012°22'612.2
2019-Sep-13 12:29N 65°58' E 012°27'612.6
2019-Sep-13 11:59N 66°03' E 012°37'612.3
2019-Sep-13 11:29N 66°08' E 012°47'611.9
2019-Sep-13 11:00N 66°13' E 012°53'611.9
2019-Sep-13 10:30N 66°19' E 012°56'611.8
2019-Sep-13 10:00N 66°25' E 012°59'611.9
2019-Sep-13 09:30N 66°31' E 012°58'510.3
2019-Sep-13 08:59N 66°35' E 013°04'612.2
2019-Sep-13 08:30N 66°41' E 013°08'612.0
2019-Sep-13 08:00N 66°47' E 013°14'611.6
2019-Sep-13 07:30N 66°52' E 013°20'611.0
2019-Sep-13 07:00N 66°56' E 013°29'510.3
2019-Sep-13 06:30N 66°60' E 013°38'611.6
2019-Sep-13 06:00N 67°03' E 013°51'611.7
2019-Sep-13 05:30N 67°07' E 014°01'611.5
2019-Sep-13 05:00N 67°13' E 014°07'611.5
2019-Sep-13 04:30N 67°17' E 014°14'611.5
2019-Sep-13 04:00N 67°22' E 014°24'510.6
2019-Sep-13 03:30N 67°27' E 014°25'611.3
2019-Sep-13 03:00N 67°33' E 014°20'1111.1
2019-Sep-13 02:00N 67°44' E 014°15'611.0
2019-Sep-13 01:30N 67°49' E 014°21'510.9
2019-Sep-13 01:00N 67°53' E 014°30'510.9
2019-Sep-13 00:30N 67°56' E 014°41'510.9
2019-Sep-13 00:00N 67°60' E 014°52'510.7
2019-Sep-12 23:30N 68°03' E 015°02'510.3
2019-Sep-12 23:00N 68°07' E 015°13'510.5
2019-Sep-12 22:30N 68°10' E 015°24'510.7
2019-Sep-12 22:00N 68°13' E 015°36'510.9
2019-Sep-12 21:30N 68°17' E 015°46'610.8
2019-Sep-12 20:59N 68°21' E 015°57'511.1
2019-Sep-12 20:30N 68°26' E 016°03'610.9
2019-Sep-12 19:59N 68°31' E 016°10'510.4
2019-Sep-12 19:30N 68°34' E 016°21'4 8.7
2019-Sep-12 19:00N 68°35' E 016°32'5 9.9
2019-Sep-12 18:30N 68°40' E 016°38'510.6
2019-Sep-12 18:00N 68°45' E 016°44'611.5
2019-Sep-12 17:30N 68°50' E 016°51'611.5
2019-Sep-12 17:00N 68°55' E 016°59'611.3
2019-Sep-12 16:30N 68°58' E 017°10'611.2
2019-Sep-12 16:00N 69°03' E 017°20'510.5
2019-Sep-12 15:30N 69°07' E 017°30'510.8
2019-Sep-12 15:00N 69°08' E 017°44'511.0
2019-Sep-12 14:30N 69°11' E 017°59'4 8.8
2019-Sep-12 14:00N 69°15' E 017°58'510.0
2019-Sep-12 13:30N 69°20' E 018°02'5 9.9
2019-Sep-12 13:00N 69°25' E 018°07'510.3
2019-Sep-12 12:29N 69°30' E 018°12'612.0
2019-Sep-12 12:00N 69°32' E 018°28'611.3
2019-Sep-12 11:30N 69°33' E 018°43'511.0
2019-Sep-12 11:00N 69°37' E 018°55'2 4.2
2019-Sep-12 10:28N 69°39' E 018°58'0 0.0
2019-Sep-12 09:58N 69°39' E 018°58'0 0.0
2019-Sep-12 09:28N 69°39' E 018°58'0 0.0
2019-Sep-12 08:58N 69°39' E 018°58'0 0.0
2019-Sep-12 08:28N 69°39' E 018°58'0 0.0
2019-Sep-12 07:58N 69°39' E 018°58'0 0.0
2019-Sep-12 07:28N 69°39' E 018°58'0 0.0
2019-Sep-12 06:58N 69°39' E 018°58'0 0.0
2019-Sep-12 06:29N 69°39' E 018°58'0 0.0
2019-Sep-12 05:59N 69°39' E 018°58'0 0.0
2019-Sep-12 05:28N 69°39' E 018°58'0 0.0
2019-Sep-12 04:58N 69°39' E 018°58'0 0.0
2019-Sep-12 04:28N 69°39' E 018°58'0 0.0
2019-Sep-12 03:58N 69°39' E 018°58'0 0.0
2019-Sep-12 03:28N 69°39' E 018°58'0 0.0
2019-Sep-12 02:58N 69°39' E 018°58'0 0.0
2019-Sep-12 02:28N 69°39' E 018°58'0 0.0
2019-Sep-12 01:58N 69°39' E 018°58'0 0.0
2019-Sep-12 01:28N 69°39' E 018°58'0 0.0
2019-Sep-12 00:58N 69°39' E 018°58'0 0.0
2019-Sep-12 00:28N 69°39' E 018°58'0 0.0
2019-Sep-11 23:59N 69°39' E 018°58'0 0.0
2019-Sep-11 23:28N 69°39' E 018°58'0 0.0
2019-Sep-11 22:58N 69°39' E 018°58'0 0.0
2019-Sep-11 22:28N 69°39' E 018°58'0 0.0
2019-Sep-11 21:58N 69°39' E 018°58'0 0.0
2019-Sep-11 21:28N 69°39' E 018°58'0 0.0
2019-Sep-11 20:58N 69°39' E 018°58'0 0.0
2019-Sep-11 20:28N 69°39' E 018°58'0 0.0
2019-Sep-11 19:58N 69°39' E 018°58'0 0.0
2019-Sep-11 19:28N 69°39' E 018°58'0 0.0
2019-Sep-11 18:58N 69°39' E 018°58'0 0.0
2019-Sep-11 18:28N 69°39' E 018°58'0 0.0
2019-Sep-11 17:58N 69°39' E 018°58'0 0.0
2019-Sep-11 17:28N 69°39' E 018°58'0 0.0
2019-Sep-11 16:58N 69°39' E 018°58'0 0.0
2019-Sep-11 16:28N 69°39' E 018°58'0 0.0
2019-Sep-11 15:58N 69°39' E 018°58'0 0.0
2019-Sep-11 15:28N 69°39' E 018°58'0 0.0
2019-Sep-11 14:58N 69°39' E 018°58'0 0.0
2019-Sep-11 14:28N 69°39' E 018°58'0 0.0
2019-Sep-11 13:58N 69°39' E 018°58'0 0.0
2019-Sep-11 13:28N 69°39' E 018°58'0 0.0
2019-Sep-11 12:58N 69°39' E 018°58'0 0.0
2019-Sep-11 12:28N 69°39' E 018°58'0 0.0
2019-Sep-11 11:58N 69°39' E 018°58'0 0.0
2019-Sep-11 11:28N 69°39' E 018°58'0 0.0
2019-Sep-11 10:58N 69°39' E 018°58'0 0.0
2019-Sep-11 10:28N 69°39' E 018°58'0 0.0
2019-Sep-11 09:58N 69°39' E 018°58'0 0.0
2019-Sep-11 09:28N 69°39' E 018°58'0 0.0
2019-Sep-11 08:58N 69°39' E 018°58'0 0.0
2019-Sep-11 08:28N 69°39' E 018°58'0 0.0
2019-Sep-11 07:58N 69°39' E 018°58'0 0.0
2019-Sep-11 07:28N 69°39' E 018°58'0 0.0
2019-Sep-11 06:58N 69°39' E 018°58'0 0.0
2019-Sep-11 06:28N 69°39' E 018°58'0 0.0
2019-Sep-11 05:58N 69°39' E 018°58'0 0.0
2019-Sep-11 05:28N 69°39' E 018°58'0 0.0
2019-Sep-11 04:58N 69°39' E 018°58'0 0.0
2019-Sep-11 04:28N 69°39' E 018°58'0 0.0
2019-Sep-11 03:58N 69°39' E 018°58'0 0.0
2019-Sep-11 03:28N 69°39' E 018°58'0 0.0
2019-Sep-11 02:58N 69°39' E 018°58'0 0.0
2019-Sep-11 02:28N 69°39' E 018°58'0 0.0
2019-Sep-11 01:58N 69°39' E 018°58'0 0.0
2019-Sep-11 01:28N 69°39' E 018°58'0 0.0
2019-Sep-11 00:58N 69°39' E 018°58'0 0.0
2019-Sep-11 00:28N 69°39' E 018°58'0 0.0
2019-Sep-10 23:58N 69°39' E 018°58'0 0.0
2019-Sep-10 23:28N 69°39' E 018°58'0 0.0
2019-Sep-10 22:58N 69°39' E 018°58'0 0.0
2019-Sep-10 22:28N 69°39' E 018°58'0 0.0
2019-Sep-10 21:58N 69°39' E 018°58'0 0.0
2019-Sep-10 21:28N 69°39' E 018°58'0 0.0
2019-Sep-10 20:58N 69°39' E 018°58'0 0.0
2019-Sep-10 20:28N 69°39' E 018°58'0 0.0
2019-Sep-10 19:58N 69°39' E 018°58'0 0.0
2019-Sep-10 19:28N 69°39' E 018°58'0 0.0
2019-Sep-10 18:58N 69°39' E 018°58'0 0.0
2019-Sep-10 18:28N 69°39' E 018°58'0 0.0
2019-Sep-10 17:58N 69°39' E 018°58'0 0.0
2019-Sep-10 17:28N 69°39' E 018°58'0 0.0
2019-Sep-10 16:58N 69°39' E 018°58'0 0.0
2019-Sep-10 16:28N 69°39' E 018°58'0 0.0
2019-Sep-10 15:58N 69°39' E 018°58'0 0.0
2019-Sep-10 15:28N 69°39' E 018°58'0 0.0
2019-Sep-10 14:58N 69°39' E 018°58'0 0.0
2019-Sep-10 14:28N 69°39' E 018°58'0 0.0
2019-Sep-10 13:58N 69°39' E 018°58'0 0.0
2019-Sep-10 13:28N 69°39' E 018°58'0 0.0
2019-Sep-10 12:58N 69°39' E 018°58'0 0.0
2019-Sep-10 12:28N 69°39' E 018°58'0 0.1
2019-Sep-10 11:58N 69°39' E 018°58'0 0.0
2019-Sep-10 11:28N 69°39' E 018°58'0 0.0
2019-Sep-10 10:58N 69°39' E 018°58'0 0.0
2019-Sep-10 10:28N 69°39' E 018°58'  
Track history (hours):
 
Tides and Currents Weather Stations Pressure Air Temp Water Temp Dewpoint Dewpoint Depression Visibility Wind Speed Wind Dir Waves Ship Positions

Oceanographic research ship G. O. Sars (Norway)

Detailed information on ship capabilities available from University of Delaware's Ocean Information Center and ARCUS's ALIAS (Arctic Logistics Information and Support) project.

Last reported at 2019-Sep-20 10:00 UTC. Time now 2019-Sep-20 10:29 UTC.
Position N 60°44' E 002°42'.

Type: Cargo ship. MMSI: 257105000.

Date/timePositionNaut miles runAvg speedWind from/ knotsBaromVisibWave heightAir tempDewpointWater temp
2019-Sep-20 10:00N 60°44' E 002°42'1 1.8
2019-Sep-20 09:30N 60°45' E 002°41'2 3.1
2019-Sep-20 08:59N 60°46' E 002°38'1 1.2
2019-Sep-20 08:30N 60°46' E 002°39'0 0.7
2019-Sep-20 07:59N 60°46' E 002°38'1 2.5
2019-Sep-20 07:28N 60°45' E 002°40'2 3.9
2019-Sep-20 07:00N 60°44' E 002°43'510.0
2019-Sep-20 06:30N 60°44' E 002°53'5 9.9
2019-Sep-20 06:00N 60°44' E 003°03'5 9.8
2019-Sep-20 05:30N 60°44' E 003°13'5 9.8
2019-Sep-20 05:00N 60°45' E 003°23'5 9.8
2019-Sep-20 04:30N 60°45' E 003°33'5 9.6
2019-Sep-20 04:00N 60°45' E 003°43'510.1
2019-Sep-20 03:30N 60°45' E 003°54'510.0
2019-Sep-20 03:00N 60°45' E 004°04'2 3.3
2019-Sep-20 02:30N 60°45' E 004°07'4 8.5
2019-Sep-20 02:00N 60°45' E 004°16'1 1.7
2019-Sep-20 01:30N 60°45' E 004°17'5 9.1
2019-Sep-20 01:00N 60°45' E 004°27'1 2.6
2019-Sep-20 00:30N 60°45' E 004°30'4 7.4
2019-Sep-20 00:00N 60°45' E 004°37'2 4.0
2019-Sep-19 23:30N 60°44' E 004°41'510.6
2019-Sep-19 23:00N 60°41' E 004°50'612.3
2019-Sep-19 22:30N 60°35' E 004°54'612.2
2019-Sep-19 22:00N 60°30' E 004°59'611.6
2019-Sep-19 21:30N 60°25' E 005°05'4 9.2
2019-Sep-19 21:00N 60°24' E 005°14'0 0.4
2019-Sep-19 20:30N 60°24' E 005°14'0 0.0
2019-Sep-19 20:00N 60°24' E 005°14'0 0.0
2019-Sep-19 19:29N 60°24' E 005°14'0 0.0
2019-Sep-19 18:59N 60°24' E 005°14'0 0.0
2019-Sep-19 18:30N 60°24' E 005°14'0 0.0
2019-Sep-19 18:00N 60°24' E 005°14'0 0.4
2019-Sep-19 17:30N 60°24' E 005°14'0 0.0
2019-Sep-19 17:00N 60°24' E 005°14'0 0.0
2019-Sep-19 16:30N 60°24' E 005°14'0 0.2
2019-Sep-19 15:59N 60°24' E 005°14'1 2.8
2019-Sep-19 15:30N 60°25' E 005°16'4 8.9
2019-Sep-19 15:00N 60°29' E 005°14'1 2.9
2019-Sep-19 14:30N 60°31' E 005°15'0 0.9
2019-Sep-19 14:00N 60°30' E 005°15'2 3.4
2019-Sep-19 13:30N 60°29' E 005°15'1 1.8
2019-Sep-19 13:00N 60°29' E 005°15'1 2.8
2019-Sep-19 12:30N 60°31' E 005°16'4 8.7
2019-Sep-19 12:00N 60°27' E 005°16'1 3.0
2019-Sep-19 11:30N 60°28' E 005°15'1 2.8
2019-Sep-19 11:00N 60°29' E 005°15'2 3.3
2019-Sep-19 10:30N 60°31' E 005°16'1 1.7
2019-Sep-19 10:00N 60°30' E 005°15'1 1.9
2019-Sep-19 09:30N 60°30' E 005°13'0 0.1
2019-Sep-19 09:00N 60°30' E 005°13'0 0.4
2019-Sep-19 08:30N 60°30' E 005°14'0 0.5
2019-Sep-19 08:00N 60°30' E 005°14'0 0.5
2019-Sep-19 07:30N 60°30' E 005°14'0 0.5
2019-Sep-19 07:00N 60°30' E 005°15'0 0.3
2019-Sep-19 06:30N 60°30' E 005°15'1 1.2
2019-Sep-19 05:59N 60°30' E 005°14'0 0.1
2019-Sep-19 05:30N 60°30' E 005°13'1 2.5
2019-Sep-19 05:00N 60°30' E 005°11'3 5.6
2019-Sep-19 04:30N 60°32' E 005°06'3 5.6
2019-Sep-19 04:00N 60°33' E 005°01'1 1.2
2019-Sep-19 03:30N 60°33' E 004°60'3 6.9
2019-Sep-19 03:00N 60°32' E 005°06'3 6.5
2019-Sep-19 02:30N 60°30' E 005°12'1 1.7
2019-Sep-19 02:00N 60°31' E 005°11'3 5.9
2019-Sep-19 01:30N 60°32' E 005°05'3 5.8
2019-Sep-19 00:59N 60°33' E 004°60'1 2.0
2019-Sep-19 00:30N 60°33' E 005°01'3 6.5
2019-Sep-19 00:00N 60°31' E 005°07'3 6.3
2019-Sep-18 23:30N 60°30' E 005°13'2 4.1
2019-Sep-18 22:59N 60°31' E 005°09'3 6.2
2019-Sep-18 22:30N 60°32' E 005°04'3 5.8
2019-Sep-18 21:59N 60°34' E 004°59'3 6.0
2019-Sep-18 21:30N 60°32' E 005°04'3 6.6
2019-Sep-18 21:00N 60°31' E 005°10'1 2.9
2019-Sep-18 20:30N 60°30' E 005°12'3 6.8
2019-Sep-18 20:00N 60°32' E 005°06'3 5.2
2019-Sep-18 19:30N 60°33' E 005°01'1 1.0
2019-Sep-18 19:00N 60°33' E 005°00'0 0.6
2019-Sep-18 18:30N 60°33' E 004°60'3 6.5
2019-Sep-18 18:00N 60°32' E 005°06'3 6.4
2019-Sep-18 17:30N 60°30' E 005°12'0 0.7
2019-Sep-18 17:00N 60°30' E 005°11'3 6.5
2019-Sep-18 16:29N 60°32' E 005°05'3 6.4
2019-Sep-18 16:00N 60°33' E 004°59'3 5.5
2019-Sep-18 15:30N 60°32' E 005°04'510.4
2019-Sep-18 14:59N 60°30' E 005°14'510.1
2019-Sep-18 14:30N 60°25' E 005°17'1 2.7
2019-Sep-18 14:00N 60°24' E 005°19'0 0.0
2019-Sep-18 13:30N 60°24' E 005°19'0 0.0
2019-Sep-18 13:00N 60°24' E 005°19'0 0.0
2019-Sep-18 12:30N 60°24' E 005°19'0 0.0
2019-Sep-18 12:00N 60°24' E 005°19'0 0.0
2019-Sep-18 11:30N 60°24' E 005°19'0 0.0
2019-Sep-18 11:00N 60°24' E 005°19'0 0.0
2019-Sep-18 10:30N 60°24' E 005°19'0 0.0
2019-Sep-18 10:00N 60°24' E 005°19'0 0.0
2019-Sep-18 09:30N 60°24' E 005°19'0 0.0
2019-Sep-18 09:00N 60°24' E 005°19'0 0.0
2019-Sep-18 08:30N 60°24' E 005°19'0 0.0
2019-Sep-18 08:00N 60°24' E 005°19'0 0.0
2019-Sep-18 07:30N 60°24' E 005°19'0 0.0
2019-Sep-18 07:00N 60°24' E 005°19'0 0.0
2019-Sep-18 06:30N 60°24' E 005°19'0 0.2
2019-Sep-18 06:00N 60°24' E 005°19'0 0.0
2019-Sep-18 05:30N 60°24' E 005°19'0 0.0
2019-Sep-18 05:00N 60°24' E 005°19'0 0.0
2019-Sep-18 04:30N 60°24' E 005°19'0 0.0
2019-Sep-18 04:00N 60°24' E 005°19'0 0.0
2019-Sep-18 03:30N 60°24' E 005°19'0 0.0
2019-Sep-18 03:00N 60°24' E 005°19'0 0.0
2019-Sep-18 02:30N 60°24' E 005°19'0 0.0
2019-Sep-18 02:00N 60°24' E 005°19'0 0.0
2019-Sep-18 01:30N 60°24' E 005°19'0 0.0
2019-Sep-18 01:00N 60°24' E 005°19'0 0.0
2019-Sep-18 00:30N 60°24' E 005°19'0 0.0
2019-Sep-18 00:00N 60°24' E 005°19'0 0.0
2019-Sep-17 23:30N 60°24' E 005°19'0 0.0
2019-Sep-17 23:00N 60°24' E 005°19'0 0.0
2019-Sep-17 22:30N 60°24' E 005°19'0 0.0
2019-Sep-17 22:00N 60°24' E 005°19'0 0.0
2019-Sep-17 21:30N 60°24' E 005°19'0 0.0
2019-Sep-17 21:00N 60°24' E 005°19'0 0.0
2019-Sep-17 20:30N 60°24' E 005°19'0 0.0
2019-Sep-17 20:00N 60°24' E 005°19'0 0.0
2019-Sep-17 19:30N 60°24' E 005°19'0 0.0
2019-Sep-17 19:00N 60°24' E 005°19'0 0.0
2019-Sep-17 18:30N 60°24' E 005°19'0 0.0
2019-Sep-17 18:00N 60°24' E 005°19'0 0.0
2019-Sep-17 17:30N 60°24' E 005°19'0 0.0
2019-Sep-17 17:00N 60°24' E 005°19'0 0.0
2019-Sep-17 16:30N 60°24' E 005°19'0 0.0
2019-Sep-17 16:00N 60°24' E 005°19'0 0.0
2019-Sep-17 15:30N 60°24' E 005°19'0 0.0
2019-Sep-17 15:00N 60°24' E 005°19'0 0.0
2019-Sep-17 14:30N 60°24' E 005°19'0 0.0
2019-Sep-17 14:00N 60°24' E 005°19'0 0.0
2019-Sep-17 13:30N 60°24' E 005°19'0 0.0
2019-Sep-17 13:00N 60°24' E 005°19'0 0.0
2019-Sep-17 12:30N 60°24' E 005°19'0 0.0
2019-Sep-17 12:00N 60°24' E 005°19'0 0.0
2019-Sep-17 11:30N 60°24' E 005°19'0 0.0
2019-Sep-17 11:00N 60°24' E 005°19'0 0.0
2019-Sep-17 10:30N 60°24' E 005°19'0 0.2
2019-Sep-17 10:00N 60°24' E 005°19'0 0.0
2019-Sep-17 09:30N 60°24' E 005°19'0 0.0
2019-Sep-17 09:00N 60°24' E 005°19'0 0.0
2019-Sep-17 08:30N 60°24' E 005°19'0 0.0
2019-Sep-17 08:00N 60°24' E 005°19'0 0.0
2019-Sep-17 07:30N 60°24' E 005°19'0 0.0
2019-Sep-17 07:00N 60°24' E 005°19'0 0.0
2019-Sep-17 06:30N 60°24' E 005°19'0 0.0
2019-Sep-17 06:00N 60°24' E 005°19'0 0.0
2019-Sep-17 05:30N 60°24' E 005°19'0 0.0
2019-Sep-17 05:00N 60°24' E 005°19'0 0.0
2019-Sep-17 04:30N 60°24' E 005°19'0 0.0
2019-Sep-17 04:00N 60°24' E 005°19'0 0.0
2019-Sep-17 03:30N 60°24' E 005°19'0 0.0
2019-Sep-17 03:00N 60°24' E 005°19'0 0.0
2019-Sep-17 02:30N 60°24' E 005°19'0 0.0
2019-Sep-17 02:00N 60°24' E 005°19'0 0.0
2019-Sep-17 01:30N 60°24' E 005°19'0 0.0
2019-Sep-17 01:00N 60°24' E 005°19'0 0.0
2019-Sep-17 00:30N 60°24' E 005°19'0 0.0
2019-Sep-17 00:00N 60°24' E 005°19'0 0.0
2019-Sep-16 23:30N 60°24' E 005°19'0 0.0
2019-Sep-16 23:00N 60°24' E 005°19'0 0.0
2019-Sep-16 22:30N 60°24' E 005°19'0 0.0
2019-Sep-16 22:00N 60°24' E 005°19'0 0.0
2019-Sep-16 21:30N 60°24' E 005°19'0 0.0
2019-Sep-16 21:00N 60°24' E 005°19'0 0.0
2019-Sep-16 20:30N 60°24' E 005°19'0 0.0
2019-Sep-16 20:00N 60°24' E 005°19'0 0.0
2019-Sep-16 19:30N 60°24' E 005°19'0 0.0
2019-Sep-16 19:00N 60°24' E 005°19'0 0.0
2019-Sep-16 18:30N 60°24' E 005°19'0 0.0
2019-Sep-16 18:00N 60°24' E 005°19'0 0.0
2019-Sep-16 17:30N 60°24' E 005°19'0 0.0
2019-Sep-16 17:00N 60°24' E 005°19'0 0.0
2019-Sep-16 16:30N 60°24' E 005°19'0 0.0
2019-Sep-16 16:00N 60°24' E 005°19'0 0.0
2019-Sep-16 15:30N 60°24' E 005°19'0 0.0
2019-Sep-16 15:00N 60°24' E 005°19'1 1.8
2019-Sep-16 14:29N 60°25' E 005°19'0 0.1
2019-Sep-16 13:59N 60°25' E 005°19'0 0.0
2019-Sep-16 13:29N 60°25' E 005°19'0 0.0
2019-Sep-16 12:59N 60°25' E 005°19'0 0.0
2019-Sep-16 12:29N 60°25' E 005°19'0 0.1
2019-Sep-16 11:59N 60°25' E 005°19'0 0.0
2019-Sep-16 11:29N 60°25' E 005°19'0 0.0
2019-Sep-16 10:59N 60°25' E 005°19'0 0.0
2019-Sep-16 10:29N 60°25' E 005°19'0 0.0
2019-Sep-16 09:59N 60°25' E 005°19'0 0.1
2019-Sep-16 09:29N 60°25' E 005°19'0 0.0
2019-Sep-16 08:59N 60°25' E 005°19'1 1.3
2019-Sep-16 08:30N 60°24' E 005°18'0 0.7
2019-Sep-16 07:59N 60°24' E 005°19'0 0.0
2019-Sep-16 07:29N 60°24' E 005°19'0 0.0
2019-Sep-16 06:59N 60°24' E 005°19'0 0.0
2019-Sep-16 06:29N 60°24' E 005°19'0 0.0
2019-Sep-16 05:59N 60°24' E 005°19'0 0.0
2019-Sep-16 05:29N 60°24' E 005°19'0 0.0
2019-Sep-16 04:59N 60°24' E 005°19'0 0.0
2019-Sep-16 04:29N 60°24' E 005°19'0 0.0
2019-Sep-16 03:59N 60°24' E 005°19'0 0.0
2019-Sep-16 03:29N 60°24' E 005°19'0 0.0
2019-Sep-16 02:59N 60°24' E 005°19'0 0.0
2019-Sep-16 02:29N 60°24' E 005°19'0 0.0
2019-Sep-16 01:59N 60°24' E 005°19'0 0.0
2019-Sep-16 01:29N 60°24' E 005°19'0 0.0
2019-Sep-16 00:59N 60°24' E 005°19'0 0.0
2019-Sep-16 00:29N 60°24' E 005°19'0 0.0
2019-Sep-15 23:59N 60°24' E 005°19'0 0.0
2019-Sep-15 23:29N 60°24' E 005°19'0 0.0
2019-Sep-15 22:53N 60°24' E 005°19'0 0.0
2019-Sep-15 22:29N 60°24' E 005°19'0 0.0
2019-Sep-15 21:56N 60°24' E 005°19'0 0.0
2019-Sep-15 21:29N 60°24' E 005°19'0 0.0
2019-Sep-15 20:59N 60°24' E 005°19'0 0.0
2019-Sep-15 20:29N 60°24' E 005°19'0 0.0
2019-Sep-15 19:59N 60°24' E 005°19'0 0.0
2019-Sep-15 19:29N 60°24' E 005°19'0 0.0
2019-Sep-15 18:59N 60°24' E 005°19'0 0.0
2019-Sep-15 18:29N 60°24' E 005°19'0 0.0
2019-Sep-15 17:59N 60°24' E 005°19'0 0.0
2019-Sep-15 17:29N 60°24' E 005°19'0 0.0
2019-Sep-15 16:59N 60°24' E 005°19'0 0.0
2019-Sep-15 16:28N 60°24' E 005°19'0 0.0
2019-Sep-15 15:59N 60°24' E 005°19'0 0.0
2019-Sep-15 15:29N 60°24' E 005°19'0 0.0
2019-Sep-15 14:59N 60°24' E 005°19'0 0.0
2019-Sep-15 14:28N 60°24' E 005°19'0 0.0
2019-Sep-15 13:59N 60°24' E 005°19'0 0.0
2019-Sep-15 13:29N 60°24' E 005°19'0 0.0
2019-Sep-15 12:59N 60°24' E 005°19'0 0.0
2019-Sep-15 12:29N 60°24' E 005°19'0 0.0
2019-Sep-15 11:59N 60°24' E 005°19'0 0.0
2019-Sep-15 11:29N 60°24' E 005°19'0 0.0
2019-Sep-15 10:59N 60°24' E 005°19'0 0.0
2019-Sep-15 10:28N 60°24' E 005°19'0 0.0
2019-Sep-15 09:59N 60°24' E 005°19'0 0.0
2019-Sep-15 09:29N 60°24' E 005°19'0 0.0
2019-Sep-15 08:58N 60°24' E 005°19'0 0.0
2019-Sep-15 08:30N 60°24' E 005°19'2 3.6
2019-Sep-15 08:00N 60°24' E 005°15'5 9.5
2019-Sep-15 07:30N 60°25' E 005°06'510.0
2019-Sep-15 06:59N 60°29' E 004°60'510.0
2019-Sep-15 06:30N 60°33' E 004°55'510.1
2019-Sep-15 05:59N 60°38' E 004°52'510.2
2019-Sep-15 05:30N 60°43' E 004°49'510.4
2019-Sep-15 05:00N 60°47' E 004°45'4 8.3
2019-Sep-15 04:30N 60°52' E 004°46'5 9.4
2019-Sep-15 04:00N 60°56' E 004°46'4 7.4
2019-Sep-15 03:30N 60°60' E 004°48'4 8.4
2019-Sep-15 03:00N 61°02' E 004°55'510.0
2019-Sep-15 02:30N 61°06' E 005°02'5 9.6
2019-Sep-15 02:00N 61°11' E 005°01'4 8.9
2019-Sep-15 01:30N 61°15' E 004°56'4 8.0
2019-Sep-15 01:00N 61°18' E 005°00'3 6.0
2019-Sep-15 00:30N 61°21' E 005°02'4 8.4
2019-Sep-15 00:00N 61°25' E 004°58'5 9.6
2019-Sep-14 23:30N 61°29' E 004°59'5 9.7
2019-Sep-14 23:00N 61°34' E 004°58'510.0
2019-Sep-14 22:30N 61°39' E 004°59'510.1
2019-Sep-14 22:00N 61°44' E 004°56'5 9.2
2019-Sep-14 21:29N 61°47' E 005°04'4 9.1
2019-Sep-14 21:00N 61°49' E 005°12'3 6.1
2019-Sep-14 20:30N 61°52' E 005°13'4 9.1
2019-Sep-14 20:00N 61°56' E 005°07'4 6.9
2019-Sep-14 19:29N 61°59' E 005°10'4 8.6
2019-Sep-14 19:00N 62°03' E 005°08'4 8.5
2019-Sep-14 18:30N 62°05' E 004°60'2 5.0
2019-Sep-14 18:00N 62°08' E 005°00'2 4.3
2019-Sep-14 17:30N 62°10' E 005°01'2 3.9
2019-Sep-14 17:00N 62°12' E 005°03'2 4.3
2019-Sep-14 16:30N 62°13' E 005°07'4 7.1
2019-Sep-14 16:00N 62°13' E 005°14'612.1
2019-Sep-14 15:30N 62°10' E 005°24'510.0
2019-Sep-14 15:00N 62°11' E 005°35'612.6
2019-Sep-14 14:30N 62°12' E 005°48'611.8
2019-Sep-14 14:00N 62°16' E 005°58'612.4
2019-Sep-14 13:30N 62°21' E 006°07'612.3
2019-Sep-14 13:00N 62°26' E 006°02'611.6
2019-Sep-14 12:30N 62°31' E 006°09'612.1
2019-Sep-14 12:00N 62°36' E 006°17'612.0
2019-Sep-14 11:30N 62°40' E 006°26'612.4
2019-Sep-14 11:00N 62°46' E 006°33'612.0
2019-Sep-14 10:30N 62°51' E 006°40'611.8
2019-Sep-14 10:00N 62°56' E 006°47'510.3
2019-Sep-14 09:30N 62°59' E 006°56'510.1
2019-Sep-14 09:00N 63°01' E 007°06'510.6
2019-Sep-14 08:30N 63°03' E 007°17'510.6
2019-Sep-14 08:01N 63°05' E 007°28'510.9
2019-Sep-14 07:31N 63°08' E 007°37'611.4
2019-Sep-14 07:01N 63°11' E 007°48'611.4
2019-Sep-14 06:30N 63°14' E 007°59'611.3
2019-Sep-14 06:00N 63°17' E 008°10'611.8
2019-Sep-14 05:30N 63°21' E 008°20'611.7
2019-Sep-14 05:00N 63°24' E 008°31'611.5
2019-Sep-14 04:30N 63°26' E 008°43'611.4
2019-Sep-14 04:00N 63°28' E 008°55'611.8
2019-Sep-14 03:30N 63°30' E 009°07'510.9
2019-Sep-14 03:00N 63°34' E 009°16'612.7
2019-Sep-14 02:30N 63°41' E 009°16'612.8
2019-Sep-14 02:01N 63°47' E 009°18'612.4
2019-Sep-14 01:30N 63°53' E 009°21'612.2
2019-Sep-14 01:00N 63°58' E 009°28'612.1
2019-Sep-14 00:30N 64°04' E 009°34'611.7
2019-Sep-14 00:00N 64°09' E 009°41'611.8
2019-Sep-13 23:29N 64°14' E 009°49'611.5
2019-Sep-13 23:00N 64°18' E 009°57'511.2
2019-Sep-13 22:31N 64°22' E 010°05'610.8
2019-Sep-13 22:00N 64°26' E 010°14'611.0
2019-Sep-13 21:30N 64°30' E 010°23'611.3
2019-Sep-13 21:00N 64°34' E 010°32'611.2
2019-Sep-13 20:30N 64°38' E 010°41'611.3
2019-Sep-13 20:00N 64°42' E 010°51'611.8
2019-Sep-13 19:30N 64°46' E 011°02'612.4
2019-Sep-13 19:00N 64°50' E 011°11'510.0
2019-Sep-13 18:30N 64°54' E 011°20'611.4
2019-Sep-13 18:00N 64°57' E 011°31'612.0
2019-Sep-13 17:30N 65°01' E 011°41'612.8
2019-Sep-13 17:00N 65°07' E 011°48'612.6
2019-Sep-13 16:30N 65°13' E 011°54'612.8
2019-Sep-13 16:00N 65°19' E 011°60'510.0
2019-Sep-13 15:30N 65°24' E 011°58'611.6
2019-Sep-13 14:59N 65°30' E 011°59'612.3
2019-Sep-13 14:30N 65°35' E 012°07'612.5
2019-Sep-13 14:00N 65°40' E 012°14'612.7
2019-Sep-13 13:29N 65°46' E 012°19'612.8
2019-Sep-13 13:00N 65°52' E 012°22'612.2
2019-Sep-13 12:29N 65°58' E 012°27'612.6
2019-Sep-13 11:59N 66°03' E 012°37'612.3
2019-Sep-13 11:29N 66°08' E 012°47'611.9
2019-Sep-13 11:00N 66°13' E 012°53'611.9
2019-Sep-13 10:30N 66°19' E 012°56'611.8
2019-Sep-13 10:00N 66°25' E 012°59'611.9
2019-Sep-13 09:30N 66°31' E 012°58'510.3
2019-Sep-13 08:59N 66°35' E 013°04'612.2
2019-Sep-13 08:30N 66°41' E 013°08'612.0
2019-Sep-13 08:00N 66°47' E 013°14'611.6
2019-Sep-13 07:30N 66°52' E 013°20'611.0
2019-Sep-13 07:00N 66°56' E 013°29'510.3
2019-Sep-13 06:30N 66°60' E 013°38'611.6
2019-Sep-13 06:00N 67°03' E 013°51'611.7
2019-Sep-13 05:30N 67°07' E 014°01'611.5
2019-Sep-13 05:00N 67°13' E 014°07'611.5
2019-Sep-13 04:30N 67°17' E 014°14'611.5
2019-Sep-13 04:00N 67°22' E 014°24'510.6
2019-Sep-13 03:30N 67°27' E 014°25'611.3
2019-Sep-13 03:00N 67°33' E 014°20'1111.1
2019-Sep-13 02:00N 67°44' E 014°15'611.0
2019-Sep-13 01:30N 67°49' E 014°21'510.9
2019-Sep-13 01:00N 67°53' E 014°30'510.9
2019-Sep-13 00:30N 67°56' E 014°41'510.9
2019-Sep-13 00:00N 67°60' E 014°52'510.7
2019-Sep-12 23:30N 68°03' E 015°02'510.3
2019-Sep-12 23:00N 68°07' E 015°13'510.5
2019-Sep-12 22:30N 68°10' E 015°24'510.7
2019-Sep-12 22:00N 68°13' E 015°36'510.9
2019-Sep-12 21:30N 68°17' E 015°46'610.8
2019-Sep-12 20:59N 68°21' E 015°57'511.1
2019-Sep-12 20:30N 68°26' E 016°03'610.9
2019-Sep-12 19:59N 68°31' E 016°10'510.4
2019-Sep-12 19:30N 68°34' E 016°21'4 8.7
2019-Sep-12 19:00N 68°35' E 016°32'5 9.9
2019-Sep-12 18:30N 68°40' E 016°38'510.6
2019-Sep-12 18:00N 68°45' E 016°44'611.5
2019-Sep-12 17:30N 68°50' E 016°51'611.5
2019-Sep-12 17:00N 68°55' E 016°59'611.3
2019-Sep-12 16:30N 68°58' E 017°10'611.2
2019-Sep-12 16:00N 69°03' E 017°20'510.5
2019-Sep-12 15:30N 69°07' E 017°30'510.8
2019-Sep-12 15:00N 69°08' E 017°44'511.0
2019-Sep-12 14:30N 69°11' E 017°59'4 8.8
2019-Sep-12 14:00N 69°15' E 017°58'510.0
2019-Sep-12 13:30N 69°20' E 018°02'5 9.9
2019-Sep-12 13:00N 69°25' E 018°07'510.3
2019-Sep-12 12:29N 69°30' E 018°12'612.0
2019-Sep-12 12:00N 69°32' E 018°28'611.3
2019-Sep-12 11:30N 69°33' E 018°43'511.0
2019-Sep-12 11:00N 69°37' E 018°55'2 4.2
2019-Sep-12 10:28N 69°39' E 018°58'0 0.0
2019-Sep-12 09:58N 69°39' E 018°58'0 0.0
2019-Sep-12 09:28N 69°39' E 018°58'0 0.0
2019-Sep-12 08:58N 69°39' E 018°58'0 0.0
2019-Sep-12 08:28N 69°39' E 018°58'0 0.0
2019-Sep-12 07:58N 69°39' E 018°58'0 0.0
2019-Sep-12 07:28N 69°39' E 018°58'0 0.0
2019-Sep-12 06:58N 69°39' E 018°58'0 0.0
2019-Sep-12 06:29N 69°39' E 018°58'0 0.0
2019-Sep-12 05:59N 69°39' E 018°58'0 0.0
2019-Sep-12 05:28N 69°39' E 018°58'0 0.0
2019-Sep-12 04:58N 69°39' E 018°58'0 0.0
2019-Sep-12 04:28N 69°39' E 018°58'0 0.0
2019-Sep-12 03:58N 69°39' E 018°58'0 0.0
2019-Sep-12 03:28N 69°39' E 018°58'0 0.0
2019-Sep-12 02:58N 69°39' E 018°58'0 0.0
2019-Sep-12 02:28N 69°39' E 018°58'0 0.0
2019-Sep-12 01:58N 69°39' E 018°58'0 0.0
2019-Sep-12 01:28N 69°39' E 018°58'0 0.0
2019-Sep-12 00:58N 69°39' E 018°58'0 0.0
2019-Sep-12 00:28N 69°39' E 018°58'0 0.0
2019-Sep-11 23:59N 69°39' E 018°58'0 0.0
2019-Sep-11 23:28N 69°39' E 018°58'0 0.0
2019-Sep-11 22:58N 69°39' E 018°58'0 0.0
2019-Sep-11 22:28N 69°39' E 018°58'0 0.0
2019-Sep-11 21:58N 69°39' E 018°58'0 0.0
2019-Sep-11 21:28N 69°39' E 018°58'0 0.0
2019-Sep-11 20:58N 69°39' E 018°58'0 0.0
2019-Sep-11 20:28N 69°39' E 018°58'0 0.0
2019-Sep-11 19:58N 69°39' E 018°58'0 0.0
2019-Sep-11 19:28N 69°39' E 018°58'0 0.0
2019-Sep-11 18:58N 69°39' E 018°58'0 0.0
2019-Sep-11 18:28N 69°39' E 018°58'0 0.0
2019-Sep-11 17:58N 69°39' E 018°58'0 0.0
2019-Sep-11 17:28N 69°39' E 018°58'0 0.0
2019-Sep-11 16:58N 69°39' E 018°58'0 0.0
2019-Sep-11 16:28N 69°39' E 018°58'0 0.0
2019-Sep-11 15:58N 69°39' E 018°58'0 0.0
2019-Sep-11 15:28N 69°39' E 018°58'0 0.0
2019-Sep-11 14:58N 69°39' E 018°58'0 0.0
2019-Sep-11 14:28N 69°39' E 018°58'0 0.0
2019-Sep-11 13:58N 69°39' E 018°58'0 0.0
2019-Sep-11 13:28N 69°39' E 018°58'0 0.0
2019-Sep-11 12:58N 69°39' E 018°58'0 0.0
2019-Sep-11 12:28N 69°39' E 018°58'0 0.0
2019-Sep-11 11:58N 69°39' E 018°58'0 0.0
2019-Sep-11 11:28N 69°39' E 018°58'0 0.0
2019-Sep-11 10:58N 69°39' E 018°58'0 0.0
2019-Sep-11 10:28N 69°39' E 018°58'0 0.0
2019-Sep-11 09:58N 69°39' E 018°58'0 0.0
2019-Sep-11 09:28N 69°39' E 018°58'0 0.0
2019-Sep-11 08:58N 69°39' E 018°58'0 0.0
2019-Sep-11 08:28N 69°39' E 018°58'0 0.0
2019-Sep-11 07:58N 69°39' E 018°58'0 0.0
2019-Sep-11 07:28N 69°39' E 018°58'0 0.0
2019-Sep-11 06:58N 69°39' E 018°58'0 0.0
2019-Sep-11 06:28N 69°39' E 018°58'0 0.0
2019-Sep-11 05:58N 69°39' E 018°58'0 0.0
2019-Sep-11 05:28N 69°39' E 018°58'0 0.0
2019-Sep-11 04:58N 69°39' E 018°58'0 0.0
2019-Sep-11 04:28N 69°39' E 018°58'0 0.0
2019-Sep-11 03:58N 69°39' E 018°58'0 0.0
2019-Sep-11 03:28N 69°39' E 018°58'0 0.0
2019-Sep-11 02:58N 69°39' E 018°58'0 0.0
2019-Sep-11 02:28N 69°39' E 018°58'0 0.0
2019-Sep-11 01:58N 69°39' E 018°58'0 0.0
2019-Sep-11 01:28N 69°39' E 018°58'0 0.0
2019-Sep-11 00:58N 69°39' E 018°58'0 0.0
2019-Sep-11 00:28N 69°39' E 018°58'0 0.0
2019-Sep-10 23:58N 69°39' E 018°58'0 0.0
2019-Sep-10 23:28N 69°39' E 018°58'0 0.0
2019-Sep-10 22:58N 69°39' E 018°58'0 0.0
2019-Sep-10 22:28N 69°39' E 018°58'0 0.0
2019-Sep-10 21:58N 69°39' E 018°58'0 0.0
2019-Sep-10 21:28N 69°39' E 018°58'0 0.0
2019-Sep-10 20:58N 69°39' E 018°58'0 0.0
2019-Sep-10 20:28N 69°39' E 018°58'0 0.0
2019-Sep-10 19:58N 69°39' E 018°58'0 0.0
2019-Sep-10 19:28N 69°39' E 018°58'0 0.0
2019-Sep-10 18:58N 69°39' E 018°58'0 0.0
2019-Sep-10 18:28N 69°39' E 018°58'0 0.0
2019-Sep-10 17:58N 69°39' E 018°58'0 0.0
2019-Sep-10 17:28N 69°39' E 018°58'0 0.0
2019-Sep-10 16:58N 69°39' E 018°58'0 0.0
2019-Sep-10 16:28N 69°39' E 018°58'0 0.0
2019-Sep-10 15:58N 69°39' E 018°58'0 0.0
2019-Sep-10 15:28N 69°39' E 018°58'0 0.0
2019-Sep-10 14:58N 69°39' E 018°58'0 0.0
2019-Sep-10 14:28N 69°39' E 018°58'0 0.0
2019-Sep-10 13:58N 69°39' E 018°58'0 0.0
2019-Sep-10 13:28N 69°39' E 018°58'0 0.0
2019-Sep-10 12:58N 69°39' E 018°58'0 0.0
2019-Sep-10 12:28N 69°39' E 018°58'0 0.1
2019-Sep-10 11:58N 69°39' E 018°58'0 0.0
2019-Sep-10 11:28N 69°39' E 018°58'0 0.0
2019-Sep-10 10:58N 69°39' E 018°58'0 0.0
2019-Sep-10 10:28N 69°39' E 018°58'  

Dump ship's entire track history